Time;durP1;ratioP1;P1;durP2;ratioP2;P2;SDS_P1;SDS_P2;PMS_P1;PMS_P2;Temp;Humidity;BMP_temperature;BMP_pressure;BME280_temperature;BME280_humidity;BME280_pressure;Samples;Min_cycle;Max_cycle;Signal;HPM_P1;HPM_P2
2021/12/23 00:01:14;;;;;;;30.85;18.83;;;;;;;;;;5108713;27;92467;-75
2021/12/23 00:03:41;;;;;;;33.10;18.63;;;;;;;;;;5102047;27;91565;-75
2021/12/23 00:06:07;;;;;;;35.50;18.92;;;;;;;;;;5087319;27;92896;-75
2021/12/23 00:08:34;;;;;;;31.75;18.65;;;;;;;;;;5102548;27;92344;-76
2021/12/23 00:11:00;;;;;;;32.55;18.48;;;;;;;;;;5079103;27;94951;-75
2021/12/23 00:13:27;;;;;;;29.77;18.50;;;;;;;;;;5098677;27;93705;-76
2021/12/23 00:19:04;;;;;;;35.60;18.60;;;;;;;;;;5098474;27;93745;-76
2021/12/23 00:23:58;;;;;;;29.23;18.70;;;;;;;;;;5077891;27;92240;-75
2021/12/23 00:26:24;;;;;;;28.48;18.35;;;;;;;;;;5081113;27;93480;-75
2021/12/23 00:28:51;;;;;;;30.15;19.15;;;;;;;;;;5078343;27;91496;-74
2021/12/23 00:31:19;;;;;;;29.60;18.20;;;;;;;;;;5078053;27;92292;-75
2021/12/23 00:33:46;;;;;;;35.20;19.42;;;;;;;;;;5077520;27;93238;-76
2021/12/23 00:36:13;;;;;;;34.28;18.88;;;;;;;;;;5076486;27;94582;-75
2021/12/23 00:38:48;;;;;;;27.83;18.10;;;;;;;;;;5077691;27;95918;-76
2021/12/23 00:41:15;;;;;;;31.50;17.92;;;;;;;;;;5077581;27;93748;-76
2021/12/23 00:43:41;;;;;;;29.90;18.60;;;;;;;;;;5077706;27;92300;-75
2021/12/23 00:46:07;;;;;;;27.90;17.35;;;;;;;;;;5077691;27;93555;-75
2021/12/23 00:48:35;;;;;;;32.45;17.85;;;;;;;;;;5080505;27;93419;-75
2021/12/23 00:51:05;;;;;;;27.42;17.77;;;;;;;;;;5077679;27;92941;-76
2021/12/23 00:53:37;;;;;;;28.50;17.80;;;;;;;;;;5078086;27;92748;-75
2021/12/23 00:56:03;;;;;;;29.75;18.02;;;;;;;;;;5077511;27;92142;-76
2021/12/23 00:58:30;;;;;;;27.80;16.80;;;;;;;;;;5077437;27;93687;-75
2021/12/23 01:00:59;;;;;;;30.88;18.23;;;;;;;;;;5075816;27;95963;-76
2021/12/23 01:03:27;;;;;;;26.45;16.92;;;;;;;;;;5085921;27;92280;-76
2021/12/23 01:05:54;;;;;;;29.95;18.67;;;;;;;;;;5062093;27;94728;-75
2021/12/23 01:08:21;;;;;;;31.90;18.75;;;;;;;;;;5077536;27;92653;-75
2021/12/23 01:10:50;;;;;;;31.77;19.10;;;;;;;;;;5080270;27;92394;-75
2021/12/23 01:13:18;;;;;;;28.10;17.33;;;;;;;;;;5076798;27;93588;-75
2021/12/23 01:16:01;;;;;;;31.10;17.95;;;;;;;;;;5076965;27;92365;-76
2021/12/23 01:18:30;;;;;;;29.35;18.35;;;;;;;;;;5078796;27;92908;-76
2021/12/23 01:21:15;;;;;;;34.03;18.70;;;;;;;;;;5097550;27;92095;-76
2021/12/23 01:23:44;;;;;;;30.08;18.00;;;;;;;;;;5097452;27;92369;-76
2021/12/23 01:26:11;;;;;;;31.50;19.20;;;;;;;;;;5096325;27;94647;-75
2021/12/23 01:28:38;;;;;;;31.75;18.70;;;;;;;;;;5097419;27;93138;-75
2021/12/23 01:31:06;;;;;;;27.98;17.75;;;;;;;;;;5097833;27;92309;-76
2021/12/23 01:33:32;;;;;;;30.60;18.65;;;;;;;;;;5100439;27;93430;-75
2021/12/23 01:35:59;;;;;;;32.08;19.17;;;;;;;;;;5097595;27;92268;-76
2021/12/23 01:38:25;;;;;;;29.05;17.85;;;;;;;;;;5097196;27;92655;-76
2021/12/23 01:40:51;;;;;;;33.50;18.45;;;;;;;;;;5097227;27;93706;-75
2021/12/23 01:43:18;;;;;;;33.22;18.58;;;;;;;;;;5098298;27;91505;-78
2021/12/23 01:45:45;;;;;;;28.98;18.85;;;;;;;;;;5105480;27;92256;-76
2021/12/23 01:48:13;;;;;;;29.98;16.90;;;;;;;;;;5098921;27;93295;-76
2021/12/23 01:50:40;;;;;;;30.08;18.48;;;;;;;;;;5095720;27;94719;-75
2021/12/23 01:53:07;;;;;;;26.60;17.08;;;;;;;;;;5096536;27;95330;-75
2021/12/23 01:55:35;;;;;;;26.00;17.90;;;;;;;;;;5100358;27;92965;-76
2021/12/23 01:58:02;;;;;;;32.00;18.77;;;;;;;;;;5097147;27;93453;-75
2021/12/23 02:00:29;;;;;;;28.35;18.08;;;;;;;;;;5097165;27;93493;-75
2021/12/23 02:02:56;;;;;;;35.70;20.10;;;;;;;;;;5078500;27;93389;-76
2021/12/23 02:05:23;;;;;;;28.15;18.90;;;;;;;;;;5097037;27;93512;-76
2021/12/23 02:07:49;;;;;;;33.03;19.50;;;;;;;;;;5097395;27;92908;-75
2021/12/23 02:10:16;;;;;;;30.02;17.40;;;;;;;;;;5096824;27;92261;-76
2021/12/23 02:12:44;;;;;;;30.33;18.17;;;;;;;;;;5096515;27;93513;-75
2021/12/23 02:15:11;;;;;;;30.33;18.77;;;;;;;;;;5095145;27;96327;-75
2021/12/23 02:17:37;;;;;;;32.38;18.35;;;;;;;;;;5103505;27;92296;-75
2021/12/23 02:20:05;;;;;;;31.55;18.30;;;;;;;;;;5085169;27;93048;-75
2021/12/23 02:22:32;;;;;;;29.35;18.48;;;;;;;;;;5079808;27;92364;-75
2021/12/23 02:24:58;;;;;;;29.33;18.83;;;;;;;;;;5073032;27;93952;-75
2021/12/23 02:27:24;;;;;;;31.52;19.00;;;;;;;;;;5080870;27;92987;-76
2021/12/23 02:29:51;;;;;;;28.88;17.15;;;;;;;;;;5061814;27;92285;-75
2021/12/23 02:32:17;;;;;;;34.88;19.85;;;;;;;;;;5079892;27;93374;-75
2021/12/23 02:34:43;;;;;;;31.92;18.88;;;;;;;;;;5079214;27;93481;-75
2021/12/23 02:37:10;;;;;;;32.30;20.60;;;;;;;;;;5082904;27;92147;-74
2021/12/23 02:39:36;;;;;;;30.02;17.67;;;;;;;;;;5077614;27;95123;-75
2021/12/23 02:42:03;;;;;;;33.88;18.55;;;;;;;;;;5079428;27;92735;-75
2021/12/23 02:44:29;;;;;;;36.08;19.27;;;;;;;;;;5079321;27;92515;-74
2021/12/23 02:46:55;;;;;;;31.75;19.13;;;;;;;;;;5079011;27;93542;-75
2021/12/23 02:49:22;;;;;;;33.20;18.45;;;;;;;;;;5078896;27;92473;-75
2021/12/23 02:51:48;;;;;;;28.67;18.02;;;;;;;;;;5079451;27;93497;-74
2021/12/23 02:54:15;;;;;;;28.92;18.65;;;;;;;;;;5079318;27;92898;-75
2021/12/23 02:56:41;;;;;;;31.65;19.45;;;;;;;;;;5079863;27;91678;-75
2021/12/23 02:59:07;;;;;;;29.77;18.60;;;;;;;;;;5063917;27;95324;-74
2021/12/23 03:01:35;;;;;;;35.30;19.88;;;;;;;;;;5079337;27;92261;-75
2021/12/23 03:04:02;;;;;;;29.30;18.55;;;;;;;;;;5077451;27;94677;-75
2021/12/23 03:06:29;;;;;;;30.77;19.83;;;;;;;;;;5079094;27;92674;-75
2021/12/23 03:08:56;;;;;;;30.08;18.73;;;;;;;;;;5079175;27;92281;-75
2021/12/23 03:11:23;;;;;;;34.10;19.75;;;;;;;;;;5078972;27;93548;-75
2021/12/23 03:13:51;;;;;;;30.98;19.00;;;;;;;;;;5078604;27;93620;-77
2021/12/23 03:16:19;;;;;;;34.85;19.75;;;;;;;;;;5078993;27;92190;-76
2021/12/23 03:18:45;;;;;;;35.35;19.05;;;;;;;;;;5082070;27;93392;-76
2021/12/23 03:21:12;;;;;;;41.20;19.80;;;;;;;;;;5102918;27;92933;-75
2021/12/23 03:23:38;;;;;;;33.90;20.38;;;;;;;;;;5099158;27;92816;-76
2021/12/23 03:26:05;;;;;;;34.15;19.08;;;;;;;;;;5099275;27;94020;-75
2021/12/23 03:28:32;;;;;;;39.45;20.88;;;;;;;;;;5097420;27;94797;-75
2021/12/23 03:30:59;;;;;;;33.42;20.35;;;;;;;;;;5098987;27;95900;-75
2021/12/23 03:33:25;;;;;;;30.55;19.33;;;;;;;;;;5099071;27;93128;-75
2021/12/23 03:35:51;;;;;;;36.30;19.45;;;;;;;;;;5099004;27;92317;-76
2021/12/23 03:38:18;;;;;;;32.75;19.95;;;;;;;;;;5099291;27;93390;-75
2021/12/23 03:40:45;;;;;;;33.45;20.58;;;;;;;;;;5098932;27;93716;-76
2021/12/23 03:43:12;;;;;;;33.28;18.38;;;;;;;;;;5109805;27;92251;-76
2021/12/23 03:45:39;;;;;;;38.20;19.75;;;;;;;;;;5110747;27;93361;-76
2021/12/23 03:48:05;;;;;;;31.92;18.55;;;;;;;;;;5099142;27;92361;-76
2021/12/23 03:50:32;;;;;;;34.55;19.48;;;;;;;;;;5106370;27;93481;-76
2021/12/23 03:52:58;;;;;;;36.60;20.67;;;;;;;;;;5101101;27;96257;-75
2021/12/23 03:55:24;;;;;;;33.80;20.10;;;;;;;;;;5098845;27;92291;-76
2021/12/23 03:57:51;;;;;;;33.30;19.95;;;;;;;;;;5098954;27;93476;-75
2021/12/23 04:00:18;;;;;;;33.97;20.17;;;;;;;;;;5097934;27;93879;-75
2021/12/23 04:02:44;;;;;;;32.60;20.00;;;;;;;;;;5098517;27;93382;-76
2021/12/23 04:05:11;;;;;;;34.90;19.85;;;;;;;;;;5101817;27;93583;-76
2021/12/23 04:07:38;;;;;;;31.20;19.25;;;;;;;;;;5098832;27;92284;-76
2021/12/23 04:10:09;;;;;;;35.65;21.27;;;;;;;;;;5099062;27;93389;-75
2021/12/23 04:12:35;;;;;;;34.03;20.48;;;;;;;;;;5097609;27;93696;-76
2021/12/23 04:15:02;;;;;;;39.72;20.98;;;;;;;;;;5098172;27;92298;-75
2021/12/23 04:17:28;;;;;;;35.55;19.38;;;;;;;;;;5096261;27;94788;-76
2021/12/23 04:20:02;;;;;;;35.63;20.95;;;;;;;;;;5084336;27;92408;-76
2021/12/23 04:22:29;;;;;;;33.95;21.75;;;;;;;;;;5078023;27;92182;-75
2021/12/23 04:24:55;;;;;;;30.40;20.88;;;;;;;;;;5080736;27;93704;-76
2021/12/23 04:27:21;;;;;;;36.28;22.08;;;;;;;;;;5077839;27;92300;-76
2021/12/23 04:29:48;;;;;;;42.70;20.90;;;;;;;;;;5078089;27;92671;-75
2021/12/23 04:32:14;;;;;;;36.10;22.20;;;;;;;;;;5077926;27;93217;-76
2021/12/23 04:34:40;;;;;;;39.60;23.25;;;;;;;;;;5077860;27;91640;-76
2021/12/23 04:37:07;;;;;;;37.92;21.73;;;;;;;;;;5076911;27;93232;-76
2021/12/23 04:39:33;;;;;;;39.80;22.85;;;;;;;;;;5076688;27;93684;-75
2021/12/23 04:41:59;;;;;;;41.00;22.00;;;;;;;;;;5076034;27;94515;-75
2021/12/23 04:44:26;;;;;;;39.53;22.10;;;;;;;;;;5077783;27;95367;-75
2021/12/23 04:46:52;;;;;;;42.03;22.58;;;;;;;;;;5061907;27;96474;-75
2021/12/23 04:49:22;;;;;;;38.85;22.33;;;;;;;;;;5077525;27;93718;-76
2021/12/23 04:51:49;;;;;;;41.35;22.58;;;;;;;;;;5077385;27;93549;-76
2021/12/23 04:54:15;;;;;;;43.75;23.80;;;;;;;;;;5077471;27;92170;-76
2021/12/23 04:56:41;;;;;;;39.95;22.65;;;;;;;;;;5077645;27;93068;-76
2021/12/23 04:59:07;;;;;;;43.28;22.67;;;;;;;;;;5059612;27;93927;-74
2021/12/23 05:01:35;;;;;;;37.55;23.50;;;;;;;;;;5083433;27;92382;-75
2021/12/23 05:04:01;;;;;;;43.38;25.30;;;;;;;;;;5088261;27;93879;-76
2021/12/23 05:06:28;;;;;;;40.78;23.92;;;;;;;;;;5057144;27;97702;-75
2021/12/23 05:08:54;;;;;;;36.60;22.23;;;;;;;;;;5079912;27;92312;-76
2021/12/23 05:11:20;;;;;;;42.25;22.90;;;;;;;;;;5077182;27;93830;-76
2021/12/23 05:13:49;;;;;;;40.78;23.65;;;;;;;;;;5076857;27;92621;-76
2021/12/23 05:16:17;;;;;;;45.85;25.15;;;;;;;;;;5076861;27;93845;-77
2021/12/23 05:18:44;;;;;;;43.47;24.02;;;;;;;;;;5080205;27;92983;-76
2021/12/23 05:21:10;;;;;;;38.55;23.55;;;;;;;;;;5097262;27;92441;-78
2021/12/23 05:23:37;;;;;;;45.53;24.08;;;;;;;;;;5097787;27;93469;-76
2021/12/23 05:26:06;;;;;;;42.85;24.27;;;;;;;;;;5079422;27;93679;-77
2021/12/23 05:28:32;;;;;;;38.90;22.80;;;;;;;;;;5097688;27;92449;-76
2021/12/23 05:30:59;;;;;;;44.83;25.65;;;;;;;;;;5098850;27;96890;-77
2021/12/23 05:33:26;;;;;;;46.38;26.08;;;;;;;;;;5097296;27;92287;-76
2021/12/23 05:35:55;;;;;;;45.63;25.92;;;;;;;;;;5097004;27;93102;-76
2021/12/23 05:38:22;;;;;;;47.47;25.40;;;;;;;;;;5097322;27;93588;-76
2021/12/23 05:40:48;;;;;;;48.17;25.65;;;;;;;;;;5097195;27;92355;-74
2021/12/23 05:43:15;;;;;;;46.72;25.17;;;;;;;;;;5097275;27;93810;-75
2021/12/23 05:45:41;;;;;;;47.55;26.15;;;;;;;;;;5097439;27;93691;-75
2021/12/23 05:48:08;;;;;;;60.10;28.73;;;;;;;;;;5097904;27;91497;-75
2021/12/23 05:50:34;;;;;;;57.05;28.48;;;;;;;;;;5098925;27;93331;-75
2021/12/23 05:53:01;;;;;;;59.03;28.08;;;;;;;;;;5104092;27;92458;-76
2021/12/23 05:55:27;;;;;;;53.92;27.90;;;;;;;;;;5101912;27;95136;-76
2021/12/23 05:57:54;;;;;;;59.42;29.25;;;;;;;;;;5107777;27;93823;-75
2021/12/23 06:00:22;;;;;;;58.88;28.38;;;;;;;;;;5100702;27;92345;-76
2021/12/23 06:02:48;;;;;;;57.72;28.42;;;;;;;;;;5100626;27;93691;-76
2021/12/23 06:05:15;;;;;;;57.42;30.08;;;;;;;;;;5100679;27;94244;-75
2021/12/23 06:07:41;;;;;;;49.63;26.25;;;;;;;;;;5100775;27;92202;-75
2021/12/23 06:10:08;;;;;;;49.72;28.02;;;;;;;;;;5100885;27;93545;-76
2021/12/23 06:12:35;;;;;;;52.38;27.55;;;;;;;;;;5100732;27;93013;-75
2021/12/23 06:15:01;;;;;;;48.88;25.75;;;;;;;;;;5085586;27;92604;-75
2021/12/23 06:17:28;;;;;;;51.67;27.48;;;;;;;;;;5100317;27;93624;-76
2021/12/23 06:19:54;;;;;;;50.03;27.58;;;;;;;;;;5091893;27;94673;-76
2021/12/23 06:22:20;;;;;;;50.67;26.42;;;;;;;;;;5085144;27;96343;-75
2021/12/23 06:24:48;;;;;;;47.35;25.58;;;;;;;;;;5079496;27;94258;-76
2021/12/23 06:27:15;;;;;;;52.50;27.90;;;;;;;;;;5079555;27;92306;-76
2021/12/23 06:29:41;;;;;;;54.92;29.42;;;;;;;;;;5079613;27;92841;-77
2021/12/23 06:32:08;;;;;;;51.58;27.60;;;;;;;;;;5079647;27;93195;-75
2021/12/23 06:34:34;;;;;;;48.88;25.33;;;;;;;;;;5082847;27;92305;-76
2021/12/23 06:37:01;;;;;;;49.70;27.35;;;;;;;;;;5080208;27;93022;-75
2021/12/23 06:39:27;;;;;;;54.25;28.42;;;;;;;;;;5084607;27;92779;-76
2021/12/23 06:41:54;;;;;;;49.17;26.83;;;;;;;;;;5080441;27;93473;-75
2021/12/23 06:44:20;;;;;;;50.90;26.58;;;;;;;;;;5078248;27;96355;-75
2021/12/23 06:46:47;;;;;;;66.60;28.00;;;;;;;;;;5060810;27;93858;-76
2021/12/23 06:49:15;;;;;;;57.08;29.55;;;;;;;;;;5061693;27;95630;-76
2021/12/23 06:51:42;;;;;;;51.85;27.92;;;;;;;;;;5079802;27;93842;-76
2021/12/23 06:54:09;;;;;;;56.40;28.33;;;;;;;;;;5079773;27;92290;-75
2021/12/23 06:56:35;;;;;;;50.17;27.27;;;;;;;;;;5082667;27;93603;-75
2021/12/23 06:59:01;;;;;;;55.00;28.88;;;;;;;;;;5079371;27;92226;-75
2021/12/23 07:01:28;;;;;;;52.63;27.90;;;;;;;;;;5078674;27;92995;-75
2021/12/23 07:04:06;;;;;;;60.60;29.50;;;;;;;;;;5079183;27;93753;-76
2021/12/23 07:06:35;;;;;;;51.88;26.95;;;;;;;;;;5079456;27;92355;-75
2021/12/23 07:09:03;;;;;;;56.70;29.25;;;;;;;;;;5078013;27;94646;-75
2021/12/23 07:11:32;;;;;;;60.15;28.58;;;;;;;;;;5078630;27;92919;-75
2021/12/23 07:13:58;;;;;;;62.17;29.45;;;;;;;;;;5078632;27;93315;-75
2021/12/23 07:16:24;;;;;;;60.47;29.95;;;;;;;;;;5078938;27;92479;-76
2021/12/23 07:18:51;;;;;;;56.50;29.63;;;;;;;;;;5086322;27;94070;-76
2021/12/23 07:21:17;;;;;;;58.38;28.95;;;;;;;;;;5099587;27;93454;-77
2021/12/23 07:23:44;;;;;;;56.70;28.67;;;;;;;;;;5099602;27;93333;-76
2021/12/23 07:26:10;;;;;;;55.58;27.45;;;;;;;;;;5099922;27;91551;-75
2021/12/23 07:28:36;;;;;;;56.30;28.65;;;;;;;;;;5098903;27;92710;-75
2021/12/23 07:31:03;;;;;;;52.38;28.10;;;;;;;;;;5099169;27;93469;-74
2021/12/23 07:33:29;;;;;;;58.22;29.45;;;;;;;;;;5079838;27;94735;-75
2021/12/23 07:35:56;;;;;;;59.65;29.70;;;;;;;;;;5103827;27;95275;-75
2021/12/23 07:38:22;;;;;;;56.40;29.65;;;;;;;;;;5109912;27;92790;-75
2021/12/23 07:40:49;;;;;;;54.03;28.52;;;;;;;;;;5110759;27;92233;-76
2021/12/23 07:43:31;;;;;;;59.25;29.98;;;;;;;;;;5099276;27;92249;-75
2021/12/23 07:45:59;;;;;;;60.30;27.95;;;;;;;;;;5099365;27;92304;-76
2021/12/23 07:48:28;;;;;;;57.50;29.27;;;;;;;;;;5080941;27;93516;-78
2021/12/23 07:50:58;;;;;;;60.65;30.55;;;;;;;;;;5099475;27;92908;-80
2021/12/23 07:53:25;;;;;;;61.90;29.85;;;;;;;;;;5081060;27;92516;-76
2021/12/23 07:55:51;;;;;;;55.67;28.48;;;;;;;;;;5099007;27;93307;-76
2021/12/23 07:58:17;;;;;;;60.45;29.48;;;;;;;;;;5097103;27;95438;-76
2021/12/23 08:00:44;;;;;;;62.83;31.02;;;;;;;;;;5098719;27;92474;-75
2021/12/23 08:03:10;;;;;;;59.92;30.20;;;;;;;;;;5101391;27;93461;-76
2021/12/23 08:05:37;;;;;;;64.50;30.42;;;;;;;;;;5098852;27;92157;-76
2021/12/23 08:08:03;;;;;;;64.68;30.70;;;;;;;;;;5100480;27;93370;-78
2021/12/23 08:10:31;;;;;;;59.83;30.60;;;;;;;;;;5105170;27;93508;-76
2021/12/23 08:12:57;;;;;;;54.55;29.50;;;;;;;;;;5097661;27;92109;-75
2021/12/23 08:15:24;;;;;;;62.83;28.73;;;;;;;;;;5098187;27;93272;-74
2021/12/23 08:17:51;;;;;;;64.93;29.60;;;;;;;;;;5098490;27;93822;-74
2021/12/23 08:20:18;;;;;;;56.17;28.77;;;;;;;;;;5081793;27;92448;-73
2021/12/23 08:22:44;;;;;;;59.58;30.48;;;;;;;;;;5075640;27;94883;-76
2021/12/23 08:25:11;;;;;;;59.60;29.48;;;;;;;;;;5080707;27;93532;-74
2021/12/23 08:27:38;;;;;;;60.78;29.38;;;;;;;;;;5060073;27;92748;-74
2021/12/23 08:30:06;;;;;;;62.60;29.60;;;;;;;;;;5059301;27;94338;-77
2021/12/23 08:32:32;;;;;;;65.88;30.15;;;;;;;;;;5077849;27;92332;-77
2021/12/23 08:34:59;;;;;;;63.28;29.27;;;;;;;;;;5059618;27;94794;-76
2021/12/23 08:37:25;;;;;;;64.55;30.33;;;;;;;;;;5077375;27;93524;-76
2021/12/23 08:39:53;;;;;;;55.92;29.38;;;;;;;;;;5059826;27;91615;-76
2021/12/23 08:42:20;;;;;;;57.25;28.98;;;;;;;;;;5077463;27;92863;-75
2021/12/23 08:44:47;;;;;;;63.70;28.58;;;;;;;;;;5080338;27;93234;-76
2021/12/23 08:47:14;;;;;;;57.53;27.75;;;;;;;;;;5058080;27;94655;-76
2021/12/23 08:49:42;;;;;;;60.38;28.58;;;;;;;;;;5077434;27;93576;-76
2021/12/23 08:52:08;;;;;;;59.97;30.60;;;;;;;;;;5076890;27;92463;-77
2021/12/23 08:54:35;;;;;;;58.60;30.00;;;;;;;;;;5077331;27;94269;-75
2021/12/23 08:57:01;;;;;;;55.92;28.10;;;;;;;;;;5079954;27;93581;-78
2021/12/23 08:59:28;;;;;;;62.75;29.08;;;;;;;;;;5061887;27;94143;-79
2021/12/23 09:01:55;;;;;;;61.25;29.73;;;;;;;;;;5063099;27;95362;-74
2021/12/23 09:04:33;;;;;;;60.35;28.77;;;;;;;;;;5077357;27;92719;-79
2021/12/23 09:07:00;;;;;;;56.90;27.67;;;;;;;;;;5081230;27;92333;-77
2021/12/23 09:09:30;;;;;;;57.70;29.67;;;;;;;;;;5077241;27;93306;-77
2021/12/23 09:11:57;;;;;;;54.80;28.85;;;;;;;;;;5075391;27;94711;-80
2021/12/23 09:14:23;;;;;;;60.22;27.92;;;;;;;;;;5055529;27;97732;-78
2021/12/23 09:16:50;;;;;;;60.08;30.45;;;;;;;;;;5046662;27;93977;-77
2021/12/23 09:19:16;;;;;;;58.05;28.88;;;;;;;;;;5072363;27;92315;-77
2021/12/23 09:21:42;;;;;;;52.72;27.98;;;;;;;;;;5097477;27;93236;-77
2021/12/23 09:24:09;;;;;;;58.60;28.40;;;;;;;;;;5079143;27;95200;-75
2021/12/23 09:26:46;;;;;;;58.00;29.50;;;;;;;;;;5104408;27;92277;-76
2021/12/23 09:32:39;;;;;;;59.33;28.60;;;;;;;;;;5079427;27;93018;-76
2021/12/23 09:34:48;;;;;;;59.45;28.38;;;;;;;;;;5071664;27;93473;-76
2021/12/23 09:37:14;;;;;;;56.05;28.30;;;;;;;;;;5069111;27;96507;-75
2021/12/23 09:39:41;;;;;;;57.28;27.48;;;;;;;;;;5061914;27;93025;-75
2021/12/23 09:42:08;;;;;;;56.00;28.58;;;;;;;;;;5081037;27;93030;-75
2021/12/23 09:44:34;;;;;;;61.95;29.02;;;;;;;;;;5064419;27;93023;-77
2021/12/23 09:47:04;;;;;;;47.50;25.85;;;;;;;;;;5045358;27;92413;-79
2021/12/23 09:49:31;;;;;;;59.60;29.75;;;;;;;;;;5045037;27;95871;-72
2021/12/23 09:51:57;;;;;;;58.55;29.63;;;;;;;;;;5048089;27;93143;-73
2021/12/23 09:54:25;;;;;;;59.10;29.42;;;;;;;;;;5045352;27;93580;-72
2021/12/23 09:56:54;;;;;;;55.40;29.25;;;;;;;;;;5062478;27;93465;-72
2021/12/23 09:59:26;;;;;;;54.90;27.98;;;;;;;;;;5062982;27;92173;-73
2021/12/23 10:01:53;;;;;;;56.50;29.35;;;;;;;;;;5061417;27;94684;-73
2021/12/23 10:04:20;;;;;;;58.38;29.85;;;;;;;;;;5080921;27;94035;-73
2021/12/23 10:06:48;;;;;;;49.47;27.42;;;;;;;;;;5103972;27;92584;-73
2021/12/23 10:09:27;;;;;;;55.38;27.70;;;;;;;;;;5103494;27;93767;-73
2021/12/23 10:31:47;;;;;;;56.20;28.05;;;;;;;;;;5072974;27;95828;-72
2021/12/23 10:37:18;;;;;;;53.15;27.40;;;;;;;;;;5070135;27;93288;-70
2021/12/23 10:39:47;;;;;;;63.70;27.65;;;;;;;;;;5071413;27;92893;-74
2021/12/23 10:42:16;;;;;;;56.20;26.65;;;;;;;;;;5067966;27;92371;-78
2021/12/23 10:44:53;;;;;;;57.05;26.83;;;;;;;;;;5067354;27;92898;-71
2021/12/23 10:47:37;;;;;;;53.92;28.08;;;;;;;;;;5068881;27;92657;-71
2021/12/23 10:50:28;;;;;;;54.85;27.73;;;;;;;;;;5067383;27;92346;-74
2021/12/23 10:53:03;;;;;;;59.72;28.77;;;;;;;;;;5069294;27;92834;-77
2021/12/23 10:58:16;;;;;;;52.10;27.30;;;;;;;;;;5058850;27;92181;-73
2021/12/23 11:00:51;;;;;;;59.22;28.63;;;;;;;;;;5061646;27;93559;-74
2021/12/23 11:03:29;;;;;;;57.47;27.80;;;;;;;;;;5058094;27;92225;-74
2021/12/23 11:08:47;;;;;;;56.42;27.13;;;;;;;;;;5058322;27;93560;-73
2021/12/23 11:28:36;;;;;;;55.83;27.17;;;;;;;;;;5099314;27;93567;-73
2021/12/23 11:39:32;;;;;;;53.70;25.73;;;;;;;;;;5099915;27;93359;-79
2021/12/23 11:42:03;;;;;;;50.08;26.00;;;;;;;;;;5082081;27;91884;-77
2021/12/23 11:44:31;;;;;;;53.35;27.48;;;;;;;;;;5063828;27;95232;-80
2021/12/23 11:47:03;;;;;;;51.05;26.45;;;;;;;;;;5080185;27;94974;-74
2021/12/23 11:49:30;;;;;;;51.53;26.27;;;;;;;;;;5100243;27;94600;-74
2021/12/23 11:51:57;;;;;;;53.08;27.05;;;;;;;;;;5098788;27;94097;-75
2021/12/23 11:54:29;;;;;;;53.28;25.15;;;;;;;;;;5098682;27;92283;-73
2021/12/23 11:57:02;;;;;;;51.60;26.67;;;;;;;;;;5098764;27;92360;-74
2021/12/23 11:59:30;;;;;;;56.70;28.35;;;;;;;;;;5098590;27;93195;-74
2021/12/23 12:01:57;;;;;;;50.33;26.95;;;;;;;;;;5098149;27;92260;-74
2021/12/23 12:04:28;;;;;;;47.00;25.92;;;;;;;;;;5098557;27;93401;-74
2021/12/23 12:06:55;;;;;;;50.90;27.52;;;;;;;;;;5099066;27;92927;-73
2021/12/23 12:09:26;;;;;;;54.83;27.58;;;;;;;;;;5098597;27;92317;-74
2021/12/23 12:11:59;;;;;;;51.08;26.92;;;;;;;;;;5101417;27;93480;-73
2021/12/23 12:14:32;;;;;;;52.15;27.85;;;;;;;;;;5096548;27;94787;-73
2021/12/23 12:17:17;;;;;;;55.42;26.70;;;;;;;;;;5098530;27;95039;-74
2021/12/23 12:20:11;;;;;;;53.40;27.50;;;;;;;;;;5086556;27;94056;-79
2021/12/23 12:22:54;;;;;;;53.05;26.88;;;;;;;;;;5038401;27;92372;-74
2021/12/23 12:25:28;;;;;;;51.63;26.05;;;;;;;;;;5077535;27;93427;-73
2021/12/23 12:27:57;;;;;;;54.53;27.95;;;;;;;;;;5077676;27;93400;-73
2021/12/23 12:30:53;;;;;;;57.35;27.13;;;;;;;;;;5077513;27;92423;-74
2021/12/23 12:33:19;;;;;;;53.42;26.98;;;;;;;;;;5055350;27;93813;-73
2021/12/23 12:35:50;;;;;;;50.67;27.27;;;;;;;;;;5080830;27;93979;-74
2021/12/23 12:38:19;;;;;;;55.42;27.40;;;;;;;;;;5077508;27;93559;-74
2021/12/23 12:40:54;;;;;;;50.70;26.63;;;;;;;;;;5057884;27;96320;-74
2021/12/23 12:43:43;;;;;;;46.80;25.67;;;;;;;;;;5077431;27;93246;-74
2021/12/23 12:46:11;;;;;;;53.55;27.38;;;;;;;;;;5077395;27;93155;-74
2021/12/23 12:48:56;;;;;;;49.10;26.00;;;;;;;;;;5077380;27;93544;-74
2021/12/23 12:51:24;;;;;;;52.67;27.98;;;;;;;;;;5077654;27;92201;-74
2021/12/23 12:53:51;;;;;;;48.08;25.67;;;;;;;;;;5077077;27;93132;-74
2021/12/23 12:56:27;;;;;;;50.05;27.10;;;;;;;;;;5077268;27;93667;-75
2021/12/23 12:58:54;;;;;;;52.47;26.27;;;;;;;;;;5080561;27;91678;-74
2021/12/23 13:01:34;;;;;;;48.65;26.45;;;;;;;;;;5076942;27;93534;-74
2021/12/23 13:04:01;;;;;;;49.55;25.92;;;;;;;;;;5077226;27;92328;-75
2021/12/23 13:06:38;;;;;;;50.58;27.25;;;;;;;;;;5075019;27;96482;-74
2021/12/23 13:09:27;;;;;;;53.13;26.15;;;;;;;;;;5074420;27;92921;-74
2021/12/23 13:12:46;;;;;;;49.90;26.73;;;;;;;;;;5076749;27;92343;-80
2021/12/23 13:15:57;;;;;;;51.53;27.73;;;;;;;;;;4994115;28;92647;-75
2021/12/23 13:18:24;;;;;;;50.47;26.20;;;;;;;;;;4978518;28;93345;-75
2021/12/23 13:20:52;;;;;;;52.92;27.48;;;;;;;;;;5035572;27;92334;-75
2021/12/23 13:23:18;;;;;;;53.70;28.02;;;;;;;;;;5096913;27;93678;-74
2021/12/23 13:25:50;;;;;;;53.28;27.95;;;;;;;;;;5098109;27;91543;-74
2021/12/23 13:28:22;;;;;;;52.78;27.65;;;;;;;;;;5079177;27;94154;-75
2021/12/23 13:30:49;;;;;;;51.47;25.85;;;;;;;;;;5097278;27;93502;-75
2021/12/23 13:33:15;;;;;;;56.85;27.27;;;;;;;;;;5096095;27;94579;-75
2021/12/23 13:35:41;;;;;;;52.00;27.77;;;;;;;;;;5096957;27;95808;-74
2021/12/23 13:38:09;;;;;;;49.80;26.95;;;;;;;;;;5097221;27;93643;-74
2021/12/23 13:40:39;;;;;;;59.15;28.25;;;;;;;;;;5097411;27;92371;-75
2021/12/23 13:43:06;;;;;;;51.03;27.55;;;;;;;;;;5082091;27;93985;-76
2021/12/23 13:46:01;;;;;;;49.72;25.85;;;;;;;;;;5097348;27;92320;-83
2021/12/23 13:48:28;;;;;;;51.63;27.83;;;;;;;;;;5097628;27;93388;-77
2021/12/23 13:50:54;;;;;;;53.35;27.45;;;;;;;;;;5079603;27;93393;-77
2021/12/23 13:53:21;;;;;;;53.65;28.23;;;;;;;;;;5097175;27;92397;-75
2021/12/23 13:55:50;;;;;;;49.22;27.85;;;;;;;;;;5097370;27;93558;-77
2021/12/23 13:58:27;;;;;;;53.70;28.58;;;;;;;;;;5093312;27;96040;-79
2021/12/23 14:00:53;;;;;;;55.97;27.35;;;;;;;;;;5056308;27;92377;-77
2021/12/23 14:03:20;;;;;;;55.55;27.98;;;;;;;;;;5076714;27;92825;-76
2021/12/23 14:05:51;;;;;;;52.22;27.48;;;;;;;;;;5079655;27;93618;-82
2021/12/23 14:08:39;;;;;;;49.75;27.42;;;;;;;;;;5076590;27;92810;-79
2021/12/23 14:11:48;;;;;;;51.80;27.05;;;;;;;;;;4996001;28;95935;-82
2021/12/23 14:14:18;;;;;;;53.88;27.45;;;;;;;;;;5000732;28;92356;-75
2021/12/23 14:16:52;;;;;;;47.88;27.27;;;;;;;;;;5000499;28;94908;-77
2021/12/23 14:19:26;;;;;;;50.00;28.00;;;;;;;;;;5025083;28;93701;-76
2021/12/23 14:24:39;;;;;;;51.05;25.85;;;;;;;;;;5035794;28;94900;-74
2021/12/23 14:27:05;;;;;;;47.42;25.25;;;;;;;;;;5036844;28;93955;-74
2021/12/23 14:29:33;;;;;;;54.00;27.33;;;;;;;;;;5040211;28;92416;-73
2021/12/23 14:31:59;;;;;;;54.15;27.85;;;;;;;;;;5036161;28;94109;-74
2021/12/23 14:34:27;;;;;;;51.78;28.10;;;;;;;;;;5036875;28;92482;-77
2021/12/23 14:36:55;;;;;;;48.90;26.83;;;;;;;;;;5036909;28;93617;-72
2021/12/23 14:39:23;;;;;;;51.78;27.50;;;;;;;;;;5036765;28;93661;-75
2021/12/23 14:41:52;;;;;;;54.38;27.58;;;;;;;;;;5037249;28;91530;-77
2021/12/23 14:44:22;;;;;;;51.83;26.95;;;;;;;;;;5037043;28;92278;-76
2021/12/23 14:47:13;;;;;;;55.58;28.33;;;;;;;;;;5048654;27;94071;-79
2021/12/23 14:49:55;;;;;;;52.23;27.93;;;;;;;;;;5077840;27;95114;-76
2021/12/23 14:52:41;;;;;;;51.00;28.08;;;;;;;;;;5082313;27;95632;-79
2021/12/23 14:55:07;;;;;;;49.97;28.73;;;;;;;;;;5078930;27;92342;-76
2021/12/23 14:57:36;;;;;;;54.72;26.67;;;;;;;;;;5078452;27;94088;-76
2021/12/23 15:00:08;;;;;;;52.97;29.30;;;;;;;;;;5079076;27;93884;-77
2021/12/23 15:02:34;;;;;;;54.58;29.77;;;;;;;;;;5079280;27;92172;-79
2021/12/23 15:05:04;;;;;;;55.63;29.20;;;;;;;;;;5079159;27;92969;-82
2021/12/23 15:08:04;;;;;;;55.42;28.52;;;;;;;;;;5079223;27;92839;-74
2021/12/23 15:10:30;;;;;;;53.78;27.30;;;;;;;;;;5023131;27;93177;-76
2021/12/23 15:12:59;;;;;;;53.10;28.73;;;;;;;;;;5092809;27;93081;-77
2021/12/23 15:15:32;;;;;;;52.78;27.60;;;;;;;;;;5097735;27;94723;-75
2021/12/23 15:18:12;;;;;;;54.13;28.45;;;;;;;;;;5081272;27;95266;-77
2021/12/23 15:20:49;;;;;;;52.47;29.45;;;;;;;;;;5079031;27;93023;-76
2021/12/23 15:23:54;;;;;;;54.35;27.60;;;;;;;;;;5079489;27;92253;-76
2021/12/23 15:26:30;;;;;;;53.55;28.08;;;;;;;;;;4975832;28;93261;-74
2021/12/23 15:29:05;;;;;;;57.75;29.02;;;;;;;;;;5064258;27;92228;-76
2021/12/23 15:31:32;;;;;;;48.05;28.15;;;;;;;;;;5078838;27;92347;-74
2021/12/23 15:34:00;;;;;;;54.85;29.50;;;;;;;;;;5079002;27;93462;-75